Time;durP1;ratioP1;P1;durP2;ratioP2;P2;SDS_P1;SDS_P2;PMS_P1;PMS_P2;Temp;Humidity;BMP_temperature;BMP_pressure;BME280_temperature;BME280_humidity;BME280_pressure;Samples;Min_cycle;Max_cycle;Signal;HPM_P1;HPM_P2
2023/06/04 00:00:29;;;;;;;9.30;2.45;;;13.20;95.20;;;;;;5033541;28;20488;-52
2023/06/04 00:02:55;;;;;;;9.73;3.00;;;13.10;95.40;;;;;;5033674;28;20041;-49
2023/06/04 00:05:25;;;;;;;7.88;2.35;;;13.00;95.70;;;;;;5033826;28;20045;-48
2023/06/04 00:07:52;;;;;;;8.82;2.15;;;13.00;95.90;;;;;;5033311;28;20107;-48
2023/06/04 00:10:18;;;;;;;9.77;2.38;;;12.90;96.20;;;;;;5033600;28;20041;-55
2023/06/04 00:12:45;;;;;;;8.73;2.58;;;12.80;96.50;;;;;;5033775;28;20037;-49
2023/06/04 00:15:12;;;;;;;10.38;2.22;;;12.80;96.70;;;;;;5033365;28;20038;-56
2023/06/04 00:17:39;;;;;;;10.43;2.38;;;12.80;97.00;;;;;;5033616;28;20128;-56
2023/06/04 00:20:06;;;;;;;12.50;2.75;;;12.70;96.80;;;;;;5033377;28;20042;-50
2023/06/04 00:22:33;;;;;;;9.30;2.60;;;12.70;96.90;;;;;;5032871;28;20121;-52
2023/06/04 00:24:59;;;;;;;9.07;2.75;;;12.70;97.00;;;;;;5033571;28;20055;-54
2023/06/04 00:27:26;;;;;;;7.75;2.13;;;12.70;97.20;;;;;;5032153;28;20068;-52
2023/06/04 00:29:53;;;;;;;9.13;2.80;;;12.70;97.30;;;;;;5033651;28;20041;-52
2023/06/04 00:32:20;;;;;;;10.70;3.13;;;12.70;97.20;;;;;;5033856;28;20117;-53
2023/06/04 00:34:46;;;;;;;11.15;3.10;;;12.60;97.50;;;;;;5033778;28;20041;-54
2023/06/04 00:37:13;;;;;;;12.25;2.80;;;12.60;97.50;;;;;;5032035;28;20049;-55
2023/06/04 00:39:40;;;;;;;12.85;2.55;;;12.60;97.70;;;;;;5033529;28;20030;-51
2023/06/04 00:42:07;;;;;;;16.23;3.03;;;12.50;97.90;;;;;;5033636;28;20033;-46
2023/06/04 00:44:34;;;;;;;7.75;2.50;;;12.40;98.00;;;;;;5033302;28;20041;-51
2023/06/04 00:47:00;;;;;;;10.95;3.20;;;12.30;98.30;;;;;;5033573;28;20053;-51
2023/06/04 00:49:27;;;;;;;9.68;2.72;;;12.40;98.30;;;;;;5033150;28;20095;-49
2023/06/04 00:51:54;;;;;;;9.45;2.53;;;12.30;98.60;;;;;;5033180;28;20049;-47
2023/06/04 00:54:22;;;;;;;12.50;2.63;;;12.30;98.60;;;;;;5033606;28;20453;-51
2023/06/04 00:56:49;;;;;;;10.13;2.50;;;12.20;98.80;;;;;;5033413;28;20132;-52
2023/06/04 00:59:16;;;;;;;15.10;2.85;;;12.20;99.00;;;;;;5015831;28;20042;-55
2023/06/04 01:01:45;;;;;;;9.88;2.55;;;12.20;99.00;;;;;;5031634;28;20095;-51
2023/06/04 01:04:12;;;;;;;9.40;2.63;;;12.20;99.10;;;;;;5016515;28;20038;-51
2023/06/04 01:06:38;;;;;;;12.30;2.90;;;12.20;99.30;;;;;;5036673;28;20081;-52
2023/06/04 01:09:05;;;;;;;11.25;3.22;;;12.10;99.50;;;;;;5037112;28;20049;-49
2023/06/04 01:11:34;;;;;;;9.13;2.70;;;12.00;99.70;;;;;;5036698;28;20156;-55
2023/06/04 01:14:01;;;;;;;14.68;3.00;;;12.00;99.70;;;;;;5035563;28;20072;-53
2023/06/04 01:16:28;;;;;;;12.63;3.30;;;12.00;99.90;;;;;;5036617;28;20116;-53
2023/06/04 01:18:57;;;;;;;10.98;3.25;;;11.90;99.90;;;;;;5036503;28;20037;-52
2023/06/04 01:21:28;;;;;;;11.20;3.05;;;11.90;99.90;;;;;;5036759;28;20377;-54
2023/06/04 01:23:58;;;;;;;10.40;2.88;;;11.80;99.90;;;;;;5036693;28;20125;-53
2023/06/04 01:26:26;;;;;;;6.82;2.65;;;11.80;99.90;;;;;;5034934;28;20057;-58
2023/06/04 01:28:53;;;;;;;11.27;2.78;;;11.70;99.90;;;;;;5036564;28;20046;-55
2023/06/04 01:31:22;;;;;;;8.52;2.97;;;11.70;99.90;;;;;;5035657;28;20046;-47
2023/06/04 01:33:49;;;;;;;9.70;3.03;;;11.70;99.90;;;;;;5036349;28;20041;-52
2023/06/04 01:36:16;;;;;;;11.70;2.97;;;11.60;99.90;;;;;;5036541;28;20045;-54
2023/06/04 01:38:43;;;;;;;9.88;2.78;;;11.60;99.90;;;;;;5036249;28;20046;-49
2023/06/04 01:41:10;;;;;;;7.72;2.72;;;11.60;99.90;;;;;;5034837;28;20059;-54
2023/06/04 01:43:37;;;;;;;10.90;2.65;;;11.60;99.90;;;;;;5036216;28;20117;-48
2023/06/04 01:46:03;;;;;;;11.07;3.25;;;11.50;99.90;;;;;;5036260;28;20419;-50
2023/06/04 01:48:34;;;;;;;11.63;3.17;;;11.60;99.90;;;;;;5035368;28;20045;-50
2023/06/04 01:51:02;;;;;;;12.32;3.28;;;11.60;99.90;;;;;;5035988;28;20034;-49
2023/06/04 01:53:28;;;;;;;12.45;3.58;;;11.60;99.90;;;;;;5035872;28;20496;-51
2023/06/04 01:55:57;;;;;;;11.63;3.30;;;11.50;99.90;;;;;;5035953;28;20124;-49
2023/06/04 01:58:26;;;;;;;11.75;3.15;;;11.50;99.90;;;;;;5034787;28;20133;-49
2023/06/04 02:00:54;;;;;;;9.07;3.00;;;11.50;99.90;;;;;;5034483;28;20159;-49
2023/06/04 02:03:21;;;;;;;17.40;3.20;;;11.50;99.90;;;;;;5034445;28;20037;-54
2023/06/04 02:05:48;;;;;;;12.75;3.75;;;11.50;99.90;;;;;;5034323;28;20077;-52
2023/06/04 02:08:25;;;;;;;9.80;3.25;;;11.50;99.90;;;;;;5034446;28;20407;-50
2023/06/04 02:10:52;;;;;;;11.63;3.15;;;11.50;99.90;;;;;;5034529;28;20041;-54
2023/06/04 02:13:19;;;;;;;11.38;3.33;;;11.50;99.90;;;;;;5034499;28;20041;-53
2023/06/04 02:15:46;;;;;;;10.98;3.15;;;11.50;99.90;;;;;;5033763;28;20185;-53
2023/06/04 02:18:15;;;;;;;11.48;3.55;;;11.50;99.90;;;;;;5034281;28;20037;-55
2023/06/04 02:20:43;;;;;;;9.40;3.00;;;11.50;99.90;;;;;;5034277;28;20042;-52
2023/06/04 02:23:10;;;;;;;8.77;2.78;;;11.50;99.90;;;;;;5034404;28;20069;-52
2023/06/04 02:25:37;;;;;;;9.93;2.72;;;11.50;99.90;;;;;;5033936;28;20053;-56
2023/06/04 02:28:04;;;;;;;13.20;2.92;;;11.40;99.90;;;;;;5035954;28;20353;-49
2023/06/04 02:30:31;;;;;;;14.90;3.10;;;11.40;99.90;;;;;;5035642;28;20049;-55
2023/06/04 02:33:00;;;;;;;9.20;3.30;;;11.40;99.90;;;;;;5035584;28;20052;-55
2023/06/04 02:35:27;;;;;;;14.30;3.50;;;11.40;99.90;;;;;;5035274;28;20124;-49
2023/06/04 02:37:56;;;;;;;10.30;3.30;;;11.30;99.90;;;;;;5033869;28;20040;-50
2023/06/04 02:40:23;;;;;;;11.15;3.60;;;11.30;99.90;;;;;;5034411;28;20469;-48
2023/06/04 02:42:50;;;;;;;10.80;3.47;;;11.30;99.90;;;;;;5035266;28;20045;-52
2023/06/04 02:45:16;;;;;;;11.45;3.10;;;11.30;99.90;;;;;;5033715;28;20136;-51
2023/06/04 02:47:43;;;;;;;12.75;3.75;;;11.30;99.90;;;;;;5035285;28;20041;-51
2023/06/04 02:50:10;;;;;;;7.45;3.17;;;11.30;99.90;;;;;;5035089;28;20124;-54
2023/06/04 02:52:37;;;;;;;12.63;3.42;;;11.20;99.90;;;;;;5034297;28;20072;-54
2023/06/04 02:55:04;;;;;;;10.90;3.10;;;11.20;99.90;;;;;;5034869;28;20427;-53
2023/06/04 02:57:31;;;;;;;14.30;4.00;;;11.10;99.90;;;;;;5034834;28;20473;-53
2023/06/04 02:59:57;;;;;;;8.30;3.13;;;11.10;99.90;;;;;;5034748;28;20048;-52
2023/06/04 03:02:24;;;;;;;15.00;3.95;;;11.10;99.90;;;;;;5033693;28;20506;-54
2023/06/04 03:04:52;;;;;;;16.00;5.10;;;11.00;99.90;;;;;;5034862;28;20046;-48
2023/06/04 03:07:20;;;;;;;11.10;3.50;;;11.00;99.90;;;;;;5016917;28;20048;-49
2023/06/04 03:09:47;;;;;;;16.13;3.80;;;11.00;99.90;;;;;;5033835;28;20037;-53
2023/06/04 03:12:14;;;;;;;10.18;3.30;;;11.00;99.90;;;;;;5034806;28;20083;-50
2023/06/04 03:14:40;;;;;;;10.93;3.67;;;11.00;99.90;;;;;;5033368;28;20087;-48
2023/06/04 03:17:10;;;;;;;11.75;3.50;;;10.90;99.90;;;;;;5033430;28;20033;-48
2023/06/04 03:19:37;;;;;;;10.63;3.13;;;10.90;99.90;;;;;;5033102;28;20103;-47
2023/06/04 03:22:05;;;;;;;8.95;3.05;;;10.80;99.90;;;;;;5033487;28;20449;-48
2023/06/04 03:24:32;;;;;;;14.95;3.10;;;10.80;99.90;;;;;;5032832;28;20053;-49
2023/06/04 03:26:58;;;;;;;12.73;3.47;;;10.80;99.90;;;;;;5033952;28;20053;-48
2023/06/04 03:29:25;;;;;;;15.20;3.85;;;10.70;99.90;;;;;;5033004;28;20078;-46
2023/06/04 03:31:52;;;;;;;11.25;3.30;;;10.70;99.90;;;;;;5033427;28;20045;-46
2023/06/04 03:34:20;;;;;;;11.15;3.17;;;10.70;99.90;;;;;;5017115;28;20047;-51
2023/06/04 03:36:47;;;;;;;11.65;3.10;;;10.80;99.90;;;;;;5033058;28;20045;-51
2023/06/04 03:39:14;;;;;;;14.27;3.35;;;10.80;99.90;;;;;;5034329;28;20068;-55
2023/06/04 03:41:40;;;;;;;11.18;3.30;;;10.80;99.90;;;;;;5033556;28;20065;-52
2023/06/04 03:44:07;;;;;;;11.88;3.63;;;10.70;99.90;;;;;;5033445;28;20045;-54
2023/06/04 03:46:35;;;;;;;11.15;3.60;;;10.70;99.90;;;;;;5032927;28;20492;-54
2023/06/04 03:49:02;;;;;;;11.40;3.72;;;10.60;99.90;;;;;;5032708;28;20046;-52
2023/06/04 03:51:30;;;;;;;10.00;3.60;;;10.50;99.90;;;;;;5032411;28;20076;-52
2023/06/04 03:53:58;;;;;;;8.50;3.53;;;10.60;99.90;;;;;;5032699;28;20045;-48
2023/06/04 03:56:26;;;;;;;8.90;3.17;;;10.60;99.90;;;;;;5033867;28;20041;-49
2023/06/04 03:58:54;;;;;;;9.35;3.35;;;10.60;99.90;;;;;;5032601;28;20037;-48
2023/06/04 04:01:23;;;;;;;12.00;3.83;;;10.50;99.90;;;;;;5034329;28;20061;-54
2023/06/04 04:03:50;;;;;;;12.48;3.95;;;10.40;99.90;;;;;;5033623;28;20041;-50
2023/06/04 04:06:17;;;;;;;11.90;4.10;;;10.50;99.90;;;;;;5033586;28;20077;-52
2023/06/04 04:08:44;;;;;;;11.82;3.58;;;10.50;99.90;;;;;;5032348;28;20047;-53
2023/06/04 04:11:13;;;;;;;12.77;3.70;;;10.60;99.90;;;;;;5032329;28;20044;-51
2023/06/04 04:13:39;;;;;;;11.60;3.75;;;10.60;99.90;;;;;;5033692;28;20052;-49
2023/06/04 04:16:06;;;;;;;12.05;4.18;;;10.60;99.90;;;;;;5033392;28;20052;-50
2023/06/04 04:18:34;;;;;;;10.45;3.95;;;10.60;99.90;;;;;;5032889;28;20384;-49
2023/06/04 04:21:01;;;;;;;16.30;3.97;;;10.60;99.90;;;;;;5032462;28;20052;-50
2023/06/04 04:23:28;;;;;;;16.75;4.43;;;10.60;99.90;;;;;;5033751;28;20044;-51
2023/06/04 04:25:58;;;;;;;12.70;3.30;;;10.50;99.90;;;;;;5033524;28;20088;-50
2023/06/04 04:28:28;;;;;;;12.27;3.58;;;10.50;99.90;;;;;;5032278;28;20046;-47
2023/06/04 04:31:02;;;;;;;11.02;3.60;;;10.50;99.90;;;;;;5032684;28;20366;-48
2023/06/04 04:33:36;;;;;;;12.38;3.47;;;10.50;99.90;;;;;;5032134;28;20183;-51
2023/06/04 04:36:04;;;;;;;13.35;3.97;;;10.60;99.90;;;;;;5031984;28;20542;-52
2023/06/04 04:38:33;;;;;;;11.13;3.35;;;10.70;99.90;;;;;;5033756;28;20042;-50
2023/06/04 04:41:03;;;;;;;12.18;3.45;;;10.80;99.90;;;;;;5036312;28;20520;-49
2023/06/04 04:43:30;;;;;;;14.50;4.25;;;10.90;99.90;;;;;;5036230;28;20050;-48
2023/06/04 04:45:59;;;;;;;12.90;3.90;;;11.00;99.90;;;;;;5036115;28;20042;-52
2023/06/04 04:48:26;;;;;;;12.30;3.67;;;11.10;99.90;;;;;;5036237;28;20397;-49
2023/06/04 04:50:53;;;;;;;15.65;4.03;;;11.20;99.90;;;;;;5037524;28;20052;-50
2023/06/04 04:53:20;;;;;;;9.68;3.47;;;11.30;99.90;;;;;;5036524;28;20049;-51
2023/06/04 04:55:47;;;;;;;11.73;3.78;;;11.40;99.90;;;;;;5036464;28;20037;-52
2023/06/04 04:58:14;;;;;;;8.85;3.05;;;11.50;99.90;;;;;;5035803;28;20061;-53
2023/06/04 05:00:41;;;;;;;10.90;4.05;;;11.50;99.90;;;;;;5035991;28;20048;-51
2023/06/04 05:03:08;;;;;;;12.65;3.72;;;11.60;99.90;;;;;;5036339;28;20042;-56
2023/06/04 05:05:36;;;;;;;11.30;3.90;;;11.60;99.90;;;;;;5036072;28;20041;-54
2023/06/04 05:08:04;;;;;;;10.70;4.15;;;11.70;99.90;;;;;;5035688;28;20053;-53
2023/06/04 05:10:35;;;;;;;12.32;3.50;;;11.70;99.90;;;;;;5035638;28;20091;-57
2023/06/04 05:13:06;;;;;;;11.35;3.83;;;11.70;99.90;;;;;;5035538;28;20045;-52
2023/06/04 05:15:43;;;;;;;11.52;3.80;;;11.80;99.90;;;;;;5035401;28;20096;-51
2023/06/04 05:18:12;;;;;;;12.43;4.20;;;11.90;99.90;;;;;;5036837;28;20037;-50
2023/06/04 05:20:39;;;;;;;11.90;3.67;;;11.90;99.90;;;;;;5035419;28;20040;-48
2023/06/04 05:23:09;;;;;;;12.38;3.78;;;12.00;99.90;;;;;;5035323;28;20048;-51
2023/06/04 05:25:36;;;;;;;15.25;4.50;;;12.00;99.90;;;;;;5035274;28;20057;-53
2023/06/04 05:28:05;;;;;;;14.90;4.30;;;12.10;99.90;;;;;;5035379;28;20041;-53
2023/06/04 05:30:33;;;;;;;15.10;4.07;;;12.10;99.90;;;;;;5035734;28;20041;-55
2023/06/04 05:33:00;;;;;;;12.07;3.67;;;12.20;99.90;;;;;;5035751;28;20112;-53
2023/06/04 05:35:28;;;;;;;10.48;3.95;;;12.30;99.90;;;;;;5035090;28;20507;-53
2023/06/04 05:37:55;;;;;;;12.35;3.90;;;12.40;99.90;;;;;;5036672;28;20040;-51
2023/06/04 05:40:26;;;;;;;11.02;3.72;;;12.50;99.90;;;;;;5035384;28;20072;-53
2023/06/04 05:42:53;;;;;;;10.88;3.75;;;12.70;99.90;;;;;;5035526;28;20045;-55
2023/06/04 05:45:20;;;;;;;14.35;3.90;;;12.60;99.90;;;;;;5035485;28;20095;-54
2023/06/04 05:47:47;;;;;;;10.30;3.70;;;12.60;99.90;;;;;;5035331;28;20053;-51
2023/06/04 05:50:14;;;;;;;10.85;3.83;;;12.50;99.90;;;;;;5034091;28;20042;-51
2023/06/04 05:52:41;;;;;;;8.90;3.40;;;12.60;99.90;;;;;;5036619;28;20445;-52
2023/06/04 05:55:11;;;;;;;13.55;3.90;;;12.70;99.90;;;;;;5034716;28;20045;-56
2023/06/04 05:57:38;;;;;;;11.05;4.60;;;12.70;99.90;;;;;;5035464;28;20350;-53
2023/06/04 06:00:10;;;;;;;13.55;3.88;;;12.70;99.90;;;;;;5035996;28;20084;-51
2023/06/04 06:02:45;;;;;;;12.50;3.88;;;12.60;99.90;;;;;;5035085;28;20045;-52
2023/06/04 06:05:25;;;;;;;10.73;4.00;;;12.60;99.90;;;;;;5034692;28;20561;-53
2023/06/04 06:07:52;;;;;;;13.50;4.20;;;12.60;99.90;;;;;;5034628;28;20455;-54
2023/06/04 06:10:19;;;;;;;14.38;3.75;;;12.60;99.90;;;;;;5036024;28;20362;-52
2023/06/04 06:12:46;;;;;;;10.30;4.00;;;12.50;99.90;;;;;;5034874;28;20041;-54
2023/06/04 06:15:13;;;;;;;12.10;4.47;;;12.50;99.90;;;;;;5034997;28;20037;-51
2023/06/04 06:17:42;;;;;;;13.57;3.97;;;12.50;99.90;;;;;;5034546;28;20485;-55
2023/06/04 06:20:09;;;;;;;11.18;3.67;;;12.50;99.90;;;;;;5035993;28;20037;-48
2023/06/04 06:22:36;;;;;;;15.68;4.75;;;12.40;99.90;;;;;;5034855;28;20428;-54
2023/06/04 06:25:06;;;;;;;13.23;3.83;;;12.40;99.90;;;;;;5034338;28;20053;-55
2023/06/04 06:27:38;;;;;;;12.23;3.85;;;12.40;99.90;;;;;;5034449;28;20069;-51
2023/06/04 06:30:05;;;;;;;10.38;4.10;;;12.50;99.90;;;;;;5034090;28;20145;-55
2023/06/04 06:32:32;;;;;;;11.60;3.60;;;12.60;99.90;;;;;;5035474;28;20038;-58
2023/06/04 06:34:58;;;;;;;12.32;4.10;;;12.50;99.90;;;;;;5035184;28;20107;-51
2023/06/04 06:37:25;;;;;;;11.10;3.92;;;12.50;99.90;;;;;;5035180;28;20042;-53
2023/06/04 06:39:52;;;;;;;10.48;3.13;;;12.60;99.90;;;;;;5034522;28;20099;-54
2023/06/04 06:42:19;;;;;;;11.98;3.80;;;12.60;99.90;;;;;;5035493;28;20041;-55
2023/06/04 06:44:47;;;;;;;12.50;3.20;;;12.60;99.90;;;;;;5034031;28;20041;-48
2023/06/04 06:47:14;;;;;;;10.73;4.00;;;12.70;99.90;;;;;;5035000;28;20403;-48
2023/06/04 06:49:41;;;;;;;10.00;3.55;;;12.70;99.90;;;;;;5034199;28;20044;-52
2023/06/04 06:52:08;;;;;;;10.95;3.33;;;12.80;99.90;;;;;;5035320;28;20041;-49
2023/06/04 06:54:35;;;;;;;6.93;2.85;;;12.80;99.90;;;;;;5035132;28;20037;-52
2023/06/04 06:57:02;;;;;;;8.48;3.08;;;12.80;99.90;;;;;;5034752;28;20484;-52
2023/06/04 06:59:29;;;;;;;11.05;3.45;;;12.80;99.90;;;;;;5033873;28;20030;-54
2023/06/04 07:01:56;;;;;;;8.50;2.90;;;12.90;99.90;;;;;;5034029;28;20064;-56
2023/06/04 07:04:23;;;;;;;9.55;3.10;;;12.90;99.90;;;;;;5033650;28;20049;-57
2023/06/04 07:06:49;;;;;;;10.02;3.05;;;13.00;99.90;;;;;;5034441;28;20052;-48
2023/06/04 07:09:17;;;;;;;11.27;3.60;;;13.10;99.90;;;;;;5034524;28;20496;-48
2023/06/04 07:11:43;;;;;;;13.20;3.75;;;13.10;99.90;;;;;;5034808;28;20119;-54
2023/06/04 07:14:11;;;;;;;9.48;3.22;;;13.20;99.90;;;;;;5034477;28;20551;-54
2023/06/04 07:16:37;;;;;;;10.15;2.97;;;13.20;99.90;;;;;;5034438;28;20435;-53
2023/06/04 07:19:04;;;;;;;9.30;2.75;;;13.20;99.90;;;;;;5034991;28;20121;-51
2023/06/04 07:21:31;;;;;;;10.70;3.25;;;13.30;99.90;;;;;;5034529;28;20041;-52
2023/06/04 07:23:58;;;;;;;10.93;3.10;;;13.40;99.90;;;;;;5033037;28;20065;-56
2023/06/04 07:26:26;;;;;;;10.40;3.20;;;13.40;99.90;;;;;;5034124;28;20050;-47
2023/06/04 07:28:53;;;;;;;10.23;3.15;;;13.50;99.90;;;;;;5034968;28;20120;-54
2023/06/04 07:31:19;;;;;;;9.32;3.17;;;13.50;99.90;;;;;;5034289;28;20041;-50
2023/06/04 07:33:46;;;;;;;9.20;2.90;;;13.50;99.90;;;;;;5034341;28;20485;-48
2023/06/04 07:36:13;;;;;;;10.57;2.70;;;13.50;99.90;;;;;;5034126;28;20403;-49
2023/06/04 07:38:40;;;;;;;9.90;2.97;;;13.60;99.90;;;;;;5034683;28;20400;-50
2023/06/04 07:41:07;;;;;;;7.15;2.53;;;13.70;99.90;;;;;;5034506;28;20452;-48
2023/06/04 07:43:37;;;;;;;7.72;2.75;;;13.80;99.90;;;;;;5033203;28;20477;-52
2023/06/04 07:46:04;;;;;;;8.18;2.72;;;13.80;99.90;;;;;;5034179;28;20052;-55
2023/06/04 07:48:31;;;;;;;8.85;2.78;;;13.90;99.90;;;;;;5034454;28;20056;-55
2023/06/04 07:50:57;;;;;;;9.85;2.95;;;13.90;99.90;;;;;;5033939;28;20488;-56
2023/06/04 07:53:24;;;;;;;9.20;2.47;;;14.00;99.90;;;;;;5033971;28;20045;-51
2023/06/04 07:55:51;;;;;;;6.95;2.80;;;14.10;99.90;;;;;;5033678;28;20407;-50
2023/06/04 07:58:18;;;;;;;9.63;3.17;;;14.20;99.90;;;;;;5034049;28;20116;-50
2023/06/04 08:00:45;;;;;;;8.98;2.65;;;14.20;99.90;;;;;;5034198;28;20037;-48
2023/06/04 08:03:12;;;;;;;6.70;2.72;;;14.30;99.90;;;;;;5034413;28;20045;-49
2023/06/04 08:05:39;;;;;;;8.38;2.60;;;14.30;99.90;;;;;;5034259;28;20052;-50
2023/06/04 08:08:05;;;;;;;7.75;2.60;;;14.50;99.90;;;;;;5033911;28;20120;-54
2023/06/04 08:10:32;;;;;;;7.30;2.67;;;14.50;99.80;;;;;;5033932;28;20049;-49
2023/06/04 08:12:59;;;;;;;7.68;2.65;;;14.50;99.70;;;;;;5033642;28;20041;-51
2023/06/04 08:15:26;;;;;;;7.22;3.10;;;14.60;99.80;;;;;;5033664;28;20045;-50
2023/06/04 08:17:53;;;;;;;9.80;3.10;;;14.50;99.60;;;;;;5032864;28;20091;-49
2023/06/04 08:20:19;;;;;;;10.25;3.00;;;14.60;99.80;;;;;;5034238;28;20092;-51
2023/06/04 08:22:46;;;;;;;11.07;3.60;;;14.70;99.70;;;;;;5032443;28;20037;-55
2023/06/04 08:25:13;;;;;;;8.13;2.72;;;14.90;99.30;;;;;;5033600;28;20123;-50
2023/06/04 08:27:40;;;;;;;8.63;2.55;;;14.90;99.50;;;;;;5033574;28;20064;-49
2023/06/04 08:30:07;;;;;;;7.78;2.95;;;14.90;99.50;;;;;;5033568;28;20038;-49
2023/06/04 08:32:34;;;;;;;7.88;3.13;;;14.90;99.30;;;;;;5034014;28;20124;-54
2023/06/04 08:35:01;;;;;;;10.65;2.75;;;14.90;99.40;;;;;;5035117;28;20046;-48
2023/06/04 08:37:28;;;;;;;8.68;2.63;;;15.00;99.30;;;;;;5033411;28;20057;-54
2023/06/04 08:39:54;;;;;;;6.50;2.45;;;15.10;99.30;;;;;;5033630;28;20431;-52
2023/06/04 08:42:21;;;;;;;11.10;3.08;;;15.10;99.10;;;;;;5033657;28;20041;-51
2023/06/04 08:44:48;;;;;;;8.18;3.15;;;15.20;99.00;;;;;;5033849;28;20042;-52
2023/06/04 08:47:15;;;;;;;8.52;3.05;;;15.30;98.50;;;;;;5033398;28;20041;-50
2023/06/04 08:49:42;;;;;;;10.25;2.78;;;15.40;98.80;;;;;;5033409;28;20052;-53
2023/06/04 08:52:09;;;;;;;7.22;2.50;;;15.50;98.50;;;;;;5033531;28;20508;-50
2023/06/04 08:54:36;;;;;;;8.38;2.40;;;15.50;98.60;;;;;;5033825;28;20038;-48
2023/06/04 08:57:02;;;;;;;8.13;2.50;;;15.60;98.40;;;;;;5033439;28;20121;-52
2023/06/04 08:59:29;;;;;;;5.90;2.35;;;15.60;97.70;;;;;;5033623;28;20115;-56
2023/06/04 09:01:56;;;;;;;6.18;2.40;;;15.70;97.60;;;;;;5033660;28;20124;-54
2023/06/04 09:04:23;;;;;;;5.75;2.30;;;15.70;97.70;;;;;;5032561;28;20041;-57
2023/06/04 09:06:50;;;;;;;11.07;2.50;;;15.80;97.60;;;;;;5033005;28;20041;-57
2023/06/04 09:09:17;;;;;;;8.98;2.63;;;15.70;97.30;;;;;;5033392;28;20038;-58
2023/06/04 09:11:44;;;;;;;7.32;2.70;;;15.90;97.00;;;;;;5033006;28;20059;-57
2023/06/04 09:14:11;;;;;;;8.43;2.63;;;15.90;97.50;;;;;;5033125;28;20393;-50
2023/06/04 09:16:37;;;;;;;10.25;2.85;;;16.00;97.20;;;;;;5032736;28;20481;-52
2023/06/04 09:19:04;;;;;;;7.53;2.28;;;16.10;96.90;;;;;;5033654;28;20061;-52
2023/06/04 09:21:32;;;;;;;7.72;2.40;;;16.20;96.70;;;;;;5033407;28;20071;-48
2023/06/04 09:23:59;;;;;;;5.45;2.42;;;16.30;96.90;;;;;;5033301;28;20041;-51
2023/06/04 09:26:26;;;;;;;6.47;2.65;;;16.30;96.40;;;;;;5036021;28;20111;-51
2023/06/04 09:28:55;;;;;;;7.75;2.65;;;16.30;96.50;;;;;;5035416;28;20041;-51
2023/06/04 09:31:26;;;;;;;8.18;2.33;;;16.30;96.70;;;;;;5035360;28;20045;-49
2023/06/04 09:33:53;;;;;;;9.30;2.42;;;16.40;96.70;;;;;;5036799;28;20358;-48
2023/06/04 09:36:23;;;;;;;8.25;2.40;;;16.40;96.60;;;;;;5036449;28;20049;-50
2023/06/04 09:38:50;;;;;;;8.50;2.58;;;16.50;96.20;;;;;;5036285;28;20041;-48
2023/06/04 09:41:21;;;;;;;7.75;2.15;;;16.50;96.20;;;;;;5035007;28;20369;-50
2023/06/04 09:43:51;;;;;;;6.43;2.15;;;16.60;96.30;;;;;;5036205;28;20050;-47
2023/06/04 09:46:18;;;;;;;6.43;2.38;;;16.70;95.80;;;;;;5036135;28;20049;-48
2023/06/04 09:48:45;;;;;;;7.95;2.00;;;16.80;95.40;;;;;;5036052;28;20076;-51
2023/06/04 09:51:12;;;;;;;7.20;2.38;;;16.80;95.50;;;;;;5036196;28;20045;-50
2023/06/04 09:53:39;;;;;;;8.13;2.30;;;16.90;95.60;;;;;;5036598;28;20050;-52
2023/06/04 09:56:07;;;;;;;8.80;2.50;;;17.00;95.50;;;;;;5036595;28;20129;-51
2023/06/04 09:58:34;;;;;;;6.20;2.20;;;17.00;95.10;;;;;;5036362;28;20366;-52
2023/06/04 10:01:01;;;;;;;10.68;2.30;;;17.00;95.40;;;;;;5036461;28;20037;-54
2023/06/04 10:03:28;;;;;;;5.18;2.08;;;17.20;95.10;;;;;;5036364;28;20511;-53
2023/06/04 10:05:55;;;;;;;7.38;2.10;;;17.20;94.90;;;;;;5034380;28;20042;-49
2023/06/04 10:08:21;;;;;;;8.68;2.42;;;17.20;94.80;;;;;;5035945;28;20141;-57
2023/06/04 10:10:48;;;;;;;9.32;2.85;;;17.20;94.90;;;;;;5035794;28;20103;-54
2023/06/04 10:13:15;;;;;;;6.30;2.13;;;17.40;94.50;;;;;;5035718;28;20112;-52
2023/06/04 10:15:42;;;;;;;5.88;2.00;;;17.40;93.90;;;;;;5035149;28;20042;-54
2023/06/04 10:18:09;;;;;;;4.32;2.28;;;17.50;94.20;;;;;;5035755;28;20061;-49
2023/06/04 10:20:35;;;;;;;8.48;2.30;;;17.50;94.20;;;;;;5035385;28;20120;-55
2023/06/04 10:23:04;;;;;;;5.60;1.83;;;17.50;94.20;;;;;;5035450;28;20048;-53
2023/06/04 10:25:30;;;;;;;7.45;2.00;;;17.60;94.20;;;;;;5035102;28;20080;-57
2023/06/04 10:27:58;;;;;;;5.30;1.95;;;17.70;94.60;;;;;;5033845;28;20456;-58
2023/06/04 10:30:24;;;;;;;5.97;2.20;;;17.80;93.90;;;;;;5035083;28;20103;-54
2023/06/04 10:32:51;;;;;;;5.38;1.90;;;17.90;93.80;;;;;;5034958;28;20124;-52
2023/06/04 10:35:18;;;;;;;6.32;2.03;;;18.00;93.50;;;;;;5035063;28;20052;-48
2023/06/04 10:37:47;;;;;;;11.07;1.98;;;18.00;93.50;;;;;;5034873;28;20041;-56
2023/06/04 10:40:14;;;;;;;6.45;1.92;;;18.10;93.30;;;;;;5035022;28;20366;-52
2023/06/04 10:42:41;;;;;;;6.35;2.10;;;18.10;93.10;;;;;;5035080;28;20476;-52
2023/06/04 10:45:08;;;;;;;5.60;2.05;;;18.10;92.90;;;;;;5033448;28;20087;-52
2023/06/04 10:47:37;;;;;;;8.07;2.28;;;18.20;92.90;;;;;;5034783;28;20038;-53
2023/06/04 10:50:04;;;;;;;8.70;1.90;;;18.20;92.20;;;;;;5035298;28;20052;-53
2023/06/04 10:52:31;;;;;;;7.43;1.60;;;18.20;92.50;;;;;;5035022;28;20408;-51
2023/06/04 10:54:57;;;;;;;7.43;1.90;;;18.20;92.50;;;;;;5034814;28;20044;-55
2023/06/04 10:57:25;;;;;;;4.68;1.92;;;18.40;92.70;;;;;;5034510;28;20121;-50
2023/06/04 10:59:52;;;;;;;5.50;1.90;;;18.50;92.50;;;;;;5033363;28;20063;-53
2023/06/04 11:02:18;;;;;;;5.20;1.85;;;18.50;92.20;;;;;;5034484;28;20042;-52
2023/06/04 11:04:45;;;;;;;6.47;1.98;;;18.60;92.10;;;;;;5034724;28;20099;-53
2023/06/04 11:07:12;;;;;;;5.45;1.67;;;18.70;91.90;;;;;;5034338;28;20049;-53
2023/06/04 11:09:39;;;;;;;7.00;1.73;;;18.70;91.60;;;;;;5034380;28;20507;-54
2023/06/04 11:12:06;;;;;;;4.70;1.88;;;18.80;91.80;;;;;;5034490;28;20127;-54
2023/06/04 11:14:33;;;;;;;4.88;1.63;;;18.80;91.80;;;;;;5034601;28;20045;-53
2023/06/04 11:17:00;;;;;;;6.10;1.85;;;18.90;91.60;;;;;;5034671;28;20072;-50
2023/06/04 11:19:27;;;;;;;7.68;2.20;;;18.90;91.80;;;;;;5034116;28;20047;-52
2023/06/04 11:21:53;;;;;;;8.50;1.85;;;18.80;91.50;;;;;;5034173;28;20041;-49
2023/06/04 11:24:20;;;;;;;6.43;1.90;;;18.90;91.00;;;;;;5034166;28;20092;-51
2023/06/04 11:26:47;;;;;;;8.95;2.10;;;18.90;91.10;;;;;;5034239;28;20045;-51
2023/06/04 11:29:34;;;;;;;6.82;2.00;;;18.90;91.70;;;;;;5034105;28;20041;-49
2023/06/04 11:32:03;;;;;;;5.30;1.75;;;19.00;91.80;;;;;;5034006;28;20057;-52
2023/06/04 11:34:31;;;;;;;8.18;2.28;;;18.90;92.00;;;;;;5033812;28;20396;-53
2023/06/04 11:36:58;;;;;;;6.45;1.88;;;19.00;92.20;;;;;;5032407;28;20065;-50
2023/06/04 11:39:25;;;;;;;6.13;2.00;;;19.10;92.10;;;;;;5033962;28;20075;-55
2023/06/04 11:41:52;;;;;;;5.97;1.88;;;19.20;92.10;;;;;;5032941;28;20484;-56
2023/06/04 11:44:19;;;;;;;4.88;1.88;;;19.30;91.80;;;;;;5033980;28;20539;-57
2023/06/04 11:46:48;;;;;;;5.40;2.15;;;19.40;91.00;;;;;;5033743;28;20386;-57
2023/06/04 11:49:15;;;;;;;8.85;2.08;;;19.40;90.50;;;;;;5032831;28;20103;-56
2023/06/04 11:51:42;;;;;;;6.80;2.13;;;19.40;91.10;;;;;;5033816;28;20199;-48
2023/06/04 11:54:08;;;;;;;7.63;2.10;;;19.30;91.30;;;;;;5032192;28;20136;-53
2023/06/04 11:56:35;;;;;;;9.38;2.47;;;19.40;91.20;;;;;;5033315;28;20048;-49
2023/06/04 11:59:02;;;;;;;5.22;1.98;;;19.40;90.50;;;;;;5033991;28;20041;-49
2023/06/04 12:01:30;;;;;;;6.57;1.90;;;19.40;89.80;;;;;;5033561;28;20044;-52
2023/06/04 12:03:57;;;;;;;5.38;2.20;;;19.40;90.20;;;;;;5033281;28;20454;-54
2023/06/04 12:06:24;;;;;;;7.57;1.98;;;19.40;90.50;;;;;;5033377;28;20484;-49
2023/06/04 12:08:50;;;;;;;3.75;1.67;;;19.50;90.30;;;;;;5033618;28;20481;-52
2023/06/04 12:11:17;;;;;;;6.28;1.80;;;19.50;90.50;;;;;;5033951;28;20048;-55
2023/06/04 12:13:45;;;;;;;9.30;1.90;;;19.50;90.00;;;;;;5033593;28;20042;-49
2023/06/04 12:16:12;;;;;;;8.18;1.70;;;19.40;89.40;;;;;;5033772;28;20037;-49
2023/06/04 12:18:39;;;;;;;9.15;1.48;;;19.50;89.90;;;;;;5033519;28;20045;-53
2023/06/04 12:21:06;;;;;;;5.38;1.40;;;19.40;90.00;;;;;;5033887;28;20040;-52
2023/06/04 12:23:33;;;;;;;10.77;2.13;;;19.50;90.20;;;;;;5032407;28;20099;-52
2023/06/04 12:26:02;;;;;;;6.82;2.10;;;19.60;89.40;;;;;;5033445;28;20108;-52
2023/06/04 12:28:29;;;;;;;8.75;2.00;;;19.60;89.20;;;;;;5032857;28;20037;-51
2023/06/04 12:30:56;;;;;;;5.53;1.58;;;19.50;90.00;;;;;;5033894;28;20042;-51
2023/06/04 12:33:22;;;;;;;6.72;2.20;;;19.60;90.10;;;;;;5033855;28;20076;-52
2023/06/04 12:35:49;;;;;;;5.68;1.75;;;19.70;90.00;;;;;;5033524;28;20392;-53
2023/06/04 12:38:16;;;;;;;5.75;1.90;;;19.80;90.10;;;;;;5033402;28;20136;-48
2023/06/04 12:40:43;;;;;;;6.10;1.92;;;19.90;88.70;;;;;;5033744;28;20057;-50
2023/06/04 12:43:10;;;;;;;5.88;1.90;;;20.00;88.40;;;;;;5033555;28;20042;-50